Smiths Park, South Dakota
Current Conditions -  °F | °C
As of 2:55 PM on Friday 31 Oct 2014 (Local Time) from KMDS Reporting Station
Clear Clear  
Wind Chill:   Ceiling: Unl
Heat Index:   Visibility: 10mi
Dew Point: -8°   Wind: 6mph
Humidity: 45%   Direction: 150°SSE
Pressure: 30.47"   Gusts: NA
Location:  43.9868°N, 96.9457°W
Report Text: KMDS 311955Z AUTO 15005KT 10SM CLR 03/M08 A3047 RMK AO2
Loading
Personal Weather Stations






























Interactive Weather Map
Tropical Storm Tracking
New forecast layout! Learn more

10-Day Weather Forecast

Advertisements
Track Severe Weather on mobile